Aeroporto :
LOGIN :

Iscrizione | Disclaimer

   EN    FR    IT 

 










Sommario :    VFR   VFR Marginale   IFR   IFR Intensivo   IFR Molto Intensivo
Visibilità : 
Base nubi : 
>= 8 km
>= 3000ft
5 / 8 km
1000 / 3000 ft
1500m / 5 km
500 / 1000 ft
800 / 1500m
200 / 500 ft
< 800m
< 200 ft
Simboli :   Temporali  Nebbia  Neve Forte  Precipitazioni Forti  Vento > 20 kt
SIGMETs :   Varie  Temporali  Ghiacco  Turbolenza  Onda orograficha  Ceneri Vulcaniche






- Altitudine del aeroporto : 1017 ft


LFSL - Brive Souillac

ULTIMO METAR :
  • 030730Z AUTO VRB02KT CAVOK 17/13 Q1018 TEMPO SCT025TCU

METARs OBSOLETI :
  • 030700Z AUTO VRB02KT CAVOK 17/14 Q1018 NOSIG
  • 030630Z AUTO 00000KT 9999 FEW025 OVC054 16/15 Q1018 NOSIG
  • 030600Z AUTO 00000KT 9999 SCT023 OVC054 15/14 Q1017 NOSIG
  • 030530Z AUTO 00000KT 9999 SCT048 BKN056 BKN140 15/14 Q1017 NOSIG
  • 030500Z AUTO 00000KT 9999 BKN048 OVC056 14/14 Q1017 NOSIG

TAF TAF LFSL
Valido dal 03 a 06 ore il 03 a 15 ore UTC


030500Z 0306/0315 24004KT 9999 BKN035
TEMPO 0309/0315 SCT025TCU



MetMap, La meteo Aeronautica in un colpo d'occhio ! - Copyright ORBIFLY Dicembre 2007 - Disclaimer

ORBIFLY MET'MAP TEAM :

Programmazione e sviluppo : Alexandra Zaïnal
Concezione : Baudouin d'Aumeries
Aiuto per la programmazione : Marc-Olivier Méhu
Supporto tecnico e logistico : Manuel Goepfert
Aiuto per la traduzione : Arnaldo La Scala

Contatto : metmap@orbifly.com




FONTI E CREDITI :

   NOAA